Time;durP1;ratioP1;P1;durP2;ratioP2;P2;SDS_P1;SDS_P2;PMS_P1;PMS_P2;Temp;Humidity;BMP_temperature;BMP_pressure;BME280_temperature;BME280_humidity;BME280_pressure;Samples;Min_cycle;Max_cycle;Signal;HPM_P1;HPM_P2
2022/08/01 00:01:15;;;;;;;1999.90;999.90;;;16.20;99.90;;;;;;4952168;28;20403;-83
2022/08/01 00:03:43;;;;;;;1999.90;999.90;;;16.10;99.90;;;;;;4952034;29;20479;-83
2022/08/01 00:06:10;;;;;;;1999.90;999.90;;;16.00;99.90;;;;;;4953069;28;20400;-82
2022/08/01 00:08:38;;;;;;;1926.57;999.90;;;16.00;99.90;;;;;;4953162;28;20416;-82
2022/08/01 00:11:06;;;;;;;1999.90;999.90;;;15.90;99.90;;;;;;4953206;28;20416;-82
2022/08/01 00:13:33;;;;;;;1999.90;999.90;;;16.00;99.90;;;;;;4952983;28;20392;-83
2022/08/01 00:16:01;;;;;;;1807.80;999.90;;;16.00;99.90;;;;;;4953183;28;20396;-82
2022/08/01 00:18:28;;;;;;;1992.15;999.90;;;16.00;99.90;;;;;;4944599;28;20404;-83
2022/08/01 00:20:56;;;;;;;1486.95;999.90;;;16.00;99.90;;;;;;4955597;29;20882;-83
2022/08/01 00:23:24;;;;;;;1999.90;999.90;;;15.90;99.90;;;;;;4967015;28;20402;-82
2022/08/01 00:25:51;;;;;;;1897.43;999.90;;;15.90;99.90;;;;;;4956723;28;20905;-83
2022/08/01 00:28:19;;;;;;;1814.43;999.90;;;15.90;99.90;;;;;;4955295;29;20415;-82
2022/08/01 00:30:46;;;;;;;1786.65;999.90;;;15.80;99.90;;;;;;4956632;28;20822;-82
2022/08/01 00:33:14;;;;;;;1864.43;999.90;;;15.80;99.90;;;;;;4956479;28;20506;-82
2022/08/01 00:35:41;;;;;;;1999.90;999.90;;;15.70;99.90;;;;;;4956584;29;20898;-83
2022/08/01 00:38:10;;;;;;;1999.90;999.90;;;15.80;99.90;;;;;;4955279;29;20494;-82
2022/08/01 00:40:38;;;;;;;1908.47;999.90;;;15.90;99.90;;;;;;4955108;29;20400;-82
2022/08/01 00:43:06;;;;;;;1640.55;999.90;;;15.80;99.90;;;;;;4939476;29;20423;-82
2022/08/01 00:45:33;;;;;;;1970.73;999.90;;;15.70;99.90;;;;;;4955208;29;20396;-83
2022/08/01 00:48:01;;;;;;;1999.90;999.90;;;15.70;99.90;;;;;;4955796;28;20873;-83
2022/08/01 00:50:28;;;;;;;1999.90;999.90;;;15.80;99.90;;;;;;4955118;29;20762;-83
2022/08/01 00:52:58;;;;;;;1999.90;999.90;;;15.80;99.90;;;;;;4939077;29;20400;-82
2022/08/01 00:55:27;;;;;;;1999.90;999.90;;;15.80;99.90;;;;;;4939052;29;20890;-82
2022/08/01 00:57:56;;;;;;;1999.90;999.90;;;15.70;99.90;;;;;;4956214;28;20458;-83
2022/08/01 01:00:35;;;;;;;1999.90;999.90;;;15.70;99.90;;;;;;4974044;28;20403;-82
2022/08/01 01:03:23;;;;;;;1999.90;999.90;;;15.60;99.90;;;;;;4974337;28;20394;-82
2022/08/01 01:06:29;;;;;;;1999.90;999.90;;;15.70;99.90;;;;;;4973936;28;20405;-82
2022/08/01 01:09:17;;;;;;;1999.90;999.90;;;15.70;99.90;;;;;;4958183;28;20409;-82
2022/08/01 01:12:09;;;;;;;1999.90;999.90;;;15.70;99.90;;;;;;4975110;28;20756;-82
2022/08/01 01:14:46;;;;;;;1999.90;999.90;;;15.70;99.90;;;;;;4975043;28;20780;-83
2022/08/01 01:17:19;;;;;;;1999.90;999.90;;;15.50;99.90;;;;;;4975019;28;20386;-82
2022/08/01 01:20:11;;;;;;;1999.90;999.90;;;15.60;99.90;;;;;;4975228;28;20481;-82
2022/08/01 01:22:39;;;;;;;1999.90;999.90;;;15.60;99.90;;;;;;4975210;28;20402;-83
2022/08/01 01:25:35;;;;;;;1999.90;999.90;;;15.60;99.90;;;;;;4973663;28;20800;-82
2022/08/01 01:28:27;;;;;;;1999.90;999.90;;;15.70;99.90;;;;;;4974098;28;20402;-83
2022/08/01 01:30:58;;;;;;;1999.90;999.90;;;15.60;99.90;;;;;;4973710;28;20403;-83
2022/08/01 01:33:34;;;;;;;1999.90;999.90;;;15.60;99.90;;;;;;4974903;28;20391;-83
2022/08/01 01:36:14;;;;;;;1999.90;999.90;;;15.60;99.90;;;;;;4973740;28;20387;-83
2022/08/01 01:38:45;;;;;;;1999.90;999.90;;;15.60;99.90;;;;;;4957573;28;20812;-82
2022/08/01 01:41:15;;;;;;;1999.90;999.90;;;15.60;99.90;;;;;;4973577;28;20398;-83
2022/08/01 01:43:44;;;;;;;1999.90;999.90;;;15.60;99.90;;;;;;4974954;28;20394;-82
2022/08/01 01:46:17;;;;;;;1999.90;999.90;;;15.60;99.90;;;;;;4974336;28;20733;-82
2022/08/01 01:48:46;;;;;;;1999.90;999.90;;;15.70;99.90;;;;;;4974671;28;20411;-82
2022/08/01 01:51:16;;;;;;;1845.30;999.90;;;15.60;99.90;;;;;;4974381;28;20398;-83
2022/08/01 01:53:45;;;;;;;1999.90;999.90;;;15.60;99.90;;;;;;4973134;28;20753;-83
2022/08/01 01:56:16;;;;;;;1999.90;999.90;;;15.60;99.90;;;;;;4972985;28;20497;-82
2022/08/01 01:58:45;;;;;;;1999.90;999.90;;;15.60;99.90;;;;;;4973152;28;20401;-82
2022/08/01 02:01:14;;;;;;;1991.07;999.90;;;15.60;99.90;;;;;;4972942;28;20399;-82
2022/08/01 02:04:02;;;;;;;1999.90;999.90;;;15.60;99.90;;;;;;4972959;28;20417;-83
2022/08/01 02:06:31;;;;;;;1999.90;999.90;;;15.70;99.90;;;;;;4972844;28;20430;-81
2022/08/01 02:09:01;;;;;;;1999.90;999.90;;;15.70;99.90;;;;;;4974042;28;20911;-82
2022/08/01 02:11:30;;;;;;;1999.90;999.90;;;15.80;99.90;;;;;;4974119;28;20406;-83
2022/08/01 02:14:05;;;;;;;1999.90;999.90;;;15.80;99.90;;;;;;4974083;28;20485;-83
2022/08/01 02:16:35;;;;;;;1999.90;999.90;;;15.70;99.90;;;;;;4973997;28;20780;-82
2022/08/01 02:19:03;;;;;;;1999.90;999.90;;;15.70;99.90;;;;;;4973959;28;20394;-83
2022/08/01 02:21:38;;;;;;;1999.90;999.90;;;15.70;99.90;;;;;;4974042;28;20402;-83
2022/08/01 02:24:29;;;;;;;1999.90;999.90;;;15.70;99.90;;;;;;4974067;28;20872;-83
2022/08/01 02:27:03;;;;;;;1999.90;999.90;;;15.60;99.90;;;;;;4966759;28;20404;-82
2022/08/01 02:29:56;;;;;;;1999.90;999.90;;;15.60;99.90;;;;;;4989724;28;20463;-82
2022/08/01 02:32:32;;;;;;;1999.90;999.90;;;15.60;99.90;;;;;;4993059;28;20456;-82
2022/08/01 02:35:02;;;;;;;1999.90;999.90;;;15.50;99.90;;;;;;4993126;28;20389;-82
2022/08/01 02:37:36;;;;;;;1999.90;999.90;;;15.60;99.90;;;;;;4991859;28;20404;-81
2022/08/01 02:40:09;;;;;;;1999.90;999.90;;;15.50;99.90;;;;;;4991916;28;20444;-83
2022/08/01 02:42:45;;;;;;;1999.90;999.90;;;15.50;99.90;;;;;;4991779;28;20427;-83
2022/08/01 02:45:13;;;;;;;1999.90;999.90;;;15.50;99.90;;;;;;4991768;28;20393;-83
2022/08/01 02:47:43;;;;;;;1999.90;999.90;;;15.50;99.90;;;;;;4992512;28;20401;-83
2022/08/01 02:50:14;;;;;;;1999.90;999.90;;;15.40;99.90;;;;;;4991674;28;20440;-83
2022/08/01 02:52:43;;;;;;;1999.90;999.90;;;15.40;99.90;;;;;;4991634;28;20482;-84
2022/08/01 02:55:12;;;;;;;1999.90;999.90;;;15.40;99.90;;;;;;4991458;28;20391;-82
2022/08/01 02:57:42;;;;;;;1999.90;999.90;;;15.40;99.90;;;;;;4991380;28;20467;-83
2022/08/01 03:00:19;;;;;;;1999.90;999.90;;;15.50;99.90;;;;;;4986911;28;20397;-83
2022/08/01 03:02:54;;;;;;;1999.90;999.90;;;15.60;99.90;;;;;;4953734;28;20917;-83
2022/08/01 03:05:24;;;;;;;1999.90;999.90;;;15.60;99.90;;;;;;4976079;28;20389;-83
2022/08/01 03:07:53;;;;;;;1999.90;999.90;;;15.60;99.90;;;;;;4991111;28;20747;-82
2022/08/01 03:10:24;;;;;;;1999.90;999.90;;;15.60;99.90;;;;;;4991534;28;20393;-82
2022/08/01 03:12:52;;;;;;;1999.90;999.90;;;15.50;99.90;;;;;;4961644;28;20424;-83
2022/08/01 03:15:22;;;;;;;1999.90;999.90;;;15.50;99.90;;;;;;4944486;28;20399;-83
2022/08/01 03:17:51;;;;;;;1999.90;999.90;;;15.50;99.90;;;;;;4952480;29;20400;-83
2022/08/01 03:20:24;;;;;;;1999.90;999.90;;;15.40;99.90;;;;;;4936673;29;20913;-82
2022/08/01 03:22:53;;;;;;;1999.90;999.90;;;15.40;99.90;;;;;;4952426;29;20422;-82
2022/08/01 03:25:23;;;;;;;1999.90;999.90;;;15.40;99.90;;;;;;4967992;28;20945;-82
2022/08/01 03:27:56;;;;;;;1999.90;999.90;;;15.40;99.90;;;;;;4992005;28;20393;-82
2022/08/01 03:30:25;;;;;;;1999.90;999.90;;;15.50;99.90;;;;;;4991008;28;20660;-82
2022/08/01 03:32:52;;;;;;;1999.90;999.90;;;15.50;99.90;;;;;;4992141;28;20384;-83
2022/08/01 03:35:23;;;;;;;1999.90;999.90;;;15.50;99.90;;;;;;4990944;28;20392;-83
2022/08/01 03:37:54;;;;;;;1999.90;999.90;;;15.60;99.90;;;;;;4990793;28;20385;-81
2022/08/01 03:41:25;;;;;;;1999.90;999.90;;;15.50;99.90;;;;;;4992008;28;20420;-82
2022/08/01 03:43:57;;;;;;;1999.90;999.90;;;15.50;99.90;;;;;;4980022;28;20401;-82
2022/08/01 03:46:42;;;;;;;1999.90;999.90;;;15.50;99.90;;;;;;4991097;28;20392;-83
2022/08/01 03:49:18;;;;;;;1999.90;999.90;;;15.60;99.90;;;;;;4992174;28;20415;-84
2022/08/01 03:51:49;;;;;;;1999.90;999.90;;;15.50;99.90;;;;;;4990275;28;20396;-83
2022/08/01 03:54:30;;;;;;;1999.90;999.90;;;15.50;99.90;;;;;;4991011;28;20464;-83
2022/08/01 03:56:59;;;;;;;1999.90;999.90;;;15.50;99.90;;;;;;4990822;28;20384;-83
2022/08/01 03:59:31;;;;;;;1999.90;999.90;;;15.40;99.90;;;;;;4992080;28;20415;-83
2022/08/01 04:01:59;;;;;;;1999.90;999.90;;;15.40;99.90;;;;;;4972281;28;20405;-83
2022/08/01 04:04:28;;;;;;;1999.90;999.90;;;15.50;99.90;;;;;;4972321;28;20437;-84
2022/08/01 04:06:56;;;;;;;1999.90;999.90;;;15.50;99.90;;;;;;4942119;28;20404;-83
2022/08/01 04:09:24;;;;;;;1999.90;999.90;;;15.50;99.90;;;;;;4961655;28;20409;-82
2022/08/01 04:11:51;;;;;;;1999.90;999.90;;;15.50;99.90;;;;;;4957898;28;20977;-84
2022/08/01 04:14:20;;;;;;;1999.90;999.90;;;15.40;99.90;;;;;;4971798;28;20390;-83
2022/08/01 04:16:48;;;;;;;1999.90;999.90;;;15.40;99.90;;;;;;4980602;28;20397;-83
2022/08/01 04:19:15;;;;;;;1999.90;999.90;;;15.50;99.90;;;;;;4990832;28;20478;-84
2022/08/01 04:21:43;;;;;;;1999.90;999.90;;;15.40;99.90;;;;;;4990983;28;20396;-84
2022/08/01 04:24:15;;;;;;;1999.90;999.90;;;15.30;99.90;;;;;;4992080;28;20389;-84
2022/08/01 04:26:46;;;;;;;1999.90;999.90;;;15.30;99.90;;;;;;4992141;28;20393;-84
2022/08/01 04:29:16;;;;;;;1999.90;999.90;;;15.30;99.90;;;;;;4990636;28;20504;-84
2022/08/01 04:31:46;;;;;;;1999.90;999.90;;;15.40;99.90;;;;;;4990631;28;20452;-84
2022/08/01 04:34:17;;;;;;;1999.90;999.90;;;15.30;99.90;;;;;;4990828;28;20459;-83
2022/08/01 04:36:47;;;;;;;1999.90;999.90;;;15.30;99.90;;;;;;4990458;28;20428;-84
2022/08/01 04:39:16;;;;;;;1999.90;999.90;;;15.40;99.90;;;;;;4990690;28;20403;-85
2022/08/01 04:41:46;;;;;;;1999.90;999.90;;;15.40;99.90;;;;;;4990526;28;20397;-83
2022/08/01 04:44:14;;;;;;;1999.90;999.90;;;15.50;99.90;;;;;;4991664;28;20400;-83
2022/08/01 04:46:44;;;;;;;1999.90;999.90;;;15.40;99.90;;;;;;4991520;28;20435;-83
2022/08/01 04:49:11;;;;;;;1999.90;999.90;;;15.40;99.90;;;;;;4990367;28;20417;-84
2022/08/01 04:52:02;;;;;;;1999.90;999.90;;;15.40;99.90;;;;;;4990223;28;20832;-83
2022/08/01 04:54:33;;;;;;;1999.90;999.90;;;15.40;99.90;;;;;;4990374;28;20397;-83
2022/08/01 04:57:01;;;;;;;1999.90;999.90;;;15.30;99.90;;;;;;4990424;28;20870;-85
2022/08/01 04:59:41;;;;;;;1999.90;999.90;;;15.30;99.90;;;;;;4990303;28;20556;-83
2022/08/01 05:02:16;;;;;;;1999.90;999.90;;;15.30;99.90;;;;;;4974531;28;20767;-84
2022/08/01 05:04:45;;;;;;;1999.90;999.90;;;15.30;99.90;;;;;;4993735;28;20485;-83
2022/08/01 05:07:13;;;;;;;1808.13;999.90;;;15.30;99.90;;;;;;4993834;28;20917;-83
2022/08/01 05:09:41;;;;;;;1999.90;999.90;;;15.30;99.90;;;;;;4977814;28;20413;-83
2022/08/01 05:12:10;;;;;;;1999.90;999.90;;;15.40;99.90;;;;;;4994991;28;20417;-83
2022/08/01 05:14:38;;;;;;;1999.90;999.90;;;15.40;99.90;;;;;;4993597;28;20389;-84
2022/08/01 05:17:10;;;;;;;1999.90;999.90;;;15.30;99.90;;;;;;4993348;28;20401;-82
2022/08/01 05:19:38;;;;;;;1999.90;999.90;;;15.30;99.90;;;;;;4993322;28;20400;-83
2022/08/01 05:22:07;;;;;;;1999.90;999.90;;;15.30;99.90;;;;;;4993194;28;20401;-82
2022/08/01 05:24:37;;;;;;;1999.90;999.90;;;15.30;99.90;;;;;;4993020;28;20437;-83
2022/08/01 05:27:10;;;;;;;1999.90;999.90;;;15.30;99.90;;;;;;4992011;28;20416;-83
2022/08/01 05:29:42;;;;;;;1999.90;999.90;;;15.40;99.90;;;;;;4994147;28;20417;-83
2022/08/01 05:32:11;;;;;;;1999.90;999.90;;;15.30;99.90;;;;;;4993351;28;20393;-83
2022/08/01 05:34:39;;;;;;;1999.90;999.90;;;15.20;99.90;;;;;;4966032;28;20415;-82
2022/08/01 05:37:07;;;;;;;1999.90;999.90;;;15.20;99.90;;;;;;4973103;28;20400;-83
2022/08/01 05:39:34;;;;;;;1999.90;999.90;;;15.20;99.90;;;;;;4976053;28;20768;-83
2022/08/01 05:42:02;;;;;;;1999.90;999.90;;;15.30;99.90;;;;;;4968709;28;20449;-83
2022/08/01 05:44:31;;;;;;;1999.90;999.90;;;15.30;99.90;;;;;;4973309;28;20828;-83
2022/08/01 05:46:58;;;;;;;1999.90;999.90;;;15.40;99.90;;;;;;4973274;28;20406;-83
2022/08/01 05:49:26;;;;;;;1999.90;999.90;;;15.30;99.90;;;;;;4973433;28;20418;-83
2022/08/01 05:51:53;;;;;;;1999.90;999.90;;;15.30;99.90;;;;;;4973321;28;20419;-83
2022/08/01 05:54:21;;;;;;;1999.90;999.90;;;15.20;99.90;;;;;;4974681;28;20386;-83
2022/08/01 05:56:48;;;;;;;1999.90;999.90;;;15.20;99.90;;;;;;4973230;28;20615;-83
2022/08/01 05:59:17;;;;;;;1999.90;999.90;;;15.30;99.90;;;;;;4973206;28;20394;-83
2022/08/01 06:01:44;;;;;;;1999.90;999.90;;;15.30;99.90;;;;;;4973051;28;20398;-83
2022/08/01 06:04:12;;;;;;;1999.90;999.90;;;15.30;99.90;;;;;;4972964;28;20398;-82
2022/08/01 06:06:40;;;;;;;1999.90;999.90;;;15.30;99.90;;;;;;4957083;28;20913;-83
2022/08/01 06:09:07;;;;;;;1999.90;999.90;;;15.20;99.90;;;;;;4974293;28;20410;-83
2022/08/01 06:11:35;;;;;;;1999.90;999.90;;;15.30;99.90;;;;;;4972902;28;20393;-82
2022/08/01 06:14:03;;;;;;;1999.90;999.90;;;15.30;99.90;;;;;;4973942;28;20457;-83
2022/08/01 06:16:31;;;;;;;1999.90;999.90;;;15.30;99.90;;;;;;4972750;28;20391;-83
2022/08/01 06:18:59;;;;;;;1999.90;999.90;;;15.30;99.90;;;;;;4974685;28;20481;-83
2022/08/01 06:21:27;;;;;;;1999.90;999.90;;;15.30;99.90;;;;;;4992073;28;20744;-83
2022/08/01 06:23:54;;;;;;;1999.90;999.90;;;15.20;99.90;;;;;;4992102;28;20451;-82
2022/08/01 06:26:22;;;;;;;1999.90;999.90;;;15.30;99.90;;;;;;4993226;28;20532;-82
2022/08/01 06:28:49;;;;;;;1999.90;999.90;;;15.40;99.90;;;;;;4991799;28;20412;-83
2022/08/01 06:31:17;;;;;;;1999.90;999.90;;;15.40;99.90;;;;;;4975762;28;20472;-83
2022/08/01 06:33:45;;;;;;;1999.90;999.90;;;15.30;99.90;;;;;;4991887;28;20751;-83
2022/08/01 06:36:12;;;;;;;1999.90;999.90;;;15.40;99.90;;;;;;4992993;28;20392;-82
2022/08/01 06:38:40;;;;;;;1999.90;999.90;;;15.40;99.90;;;;;;4992913;28;20399;-83
2022/08/01 06:41:07;;;;;;;1999.90;999.90;;;15.50;99.90;;;;;;4991652;28;20388;-82
2022/08/01 06:43:35;;;;;;;1999.90;999.90;;;15.50;99.90;;;;;;4992876;28;20967;-83
2022/08/01 06:46:02;;;;;;;1999.90;999.90;;;15.50;99.90;;;;;;4991814;28;20431;-83
2022/08/01 06:48:30;;;;;;;1999.90;999.90;;;15.40;99.90;;;;;;4975421;28;20405;-82
2022/08/01 06:51:11;;;;;;;1999.90;999.90;;;15.50;99.90;;;;;;4991387;28;20818;-82
2022/08/01 06:53:39;;;;;;;1999.90;999.90;;;15.40;99.90;;;;;;4991489;28;20389;-83
2022/08/01 06:56:08;;;;;;;1999.90;999.90;;;15.30;99.90;;;;;;4992670;28;20899;-83
2022/08/01 06:58:36;;;;;;;1999.90;999.90;;;15.30;99.90;;;;;;4990602;28;20392;-82
2022/08/01 07:01:05;;;;;;;1999.90;999.90;;;15.40;99.90;;;;;;4991383;28;20393;-82
2022/08/01 07:03:35;;;;;;;1999.90;999.90;;;15.40;99.90;;;;;;4992817;28;20391;-83
2022/08/01 07:06:24;;;;;;;1999.90;999.90;;;15.40;99.90;;;;;;4992459;28;20905;-82
2022/08/01 07:08:53;;;;;;;1999.90;999.90;;;15.30;99.90;;;;;;4992333;28;20397;-83
2022/08/01 07:11:22;;;;;;;1999.90;999.90;;;15.30;99.90;;;;;;4992340;28;20408;-83
2022/08/01 07:13:50;;;;;;;1999.90;999.90;;;15.40;99.90;;;;;;4992372;28;20705;-83
2022/08/01 07:16:18;;;;;;;1999.90;999.90;;;15.40;99.90;;;;;;4992325;28;20385;-83
2022/08/01 07:18:45;;;;;;;1999.90;999.90;;;15.40;99.90;;;;;;4992393;28;20428;-84
2022/08/01 07:21:13;;;;;;;1999.90;999.90;;;15.40;99.90;;;;;;4991240;28;20400;-83
2022/08/01 07:24:01;;;;;;;1999.90;999.90;;;15.50;99.90;;;;;;4992248;28;20397;-83
2022/08/01 07:26:39;;;;;;;1999.90;999.90;;;15.50;99.90;;;;;;4991414;28;20392;-82
2022/08/01 07:29:21;;;;;;;1999.90;999.90;;;15.50;99.90;;;;;;4992239;28;20416;-83
2022/08/01 07:31:49;;;;;;;1999.90;999.90;;;15.50;99.90;;;;;;4992141;28;20391;-83
2022/08/01 07:34:16;;;;;;;1999.90;999.90;;;15.50;99.90;;;;;;4991090;28;20807;-83
2022/08/01 07:36:44;;;;;;;1999.90;999.90;;;15.50;99.90;;;;;;4992182;28;20393;-83
2022/08/01 07:39:11;;;;;;;1999.90;999.90;;;15.60;99.90;;;;;;4992084;28;20392;-82
2022/08/01 07:41:39;;;;;;;1999.90;999.90;;;15.60;99.90;;;;;;4990780;28;20393;-83
2022/08/01 07:44:26;;;;;;;1999.90;999.90;;;15.60;99.90;;;;;;4992059;28;20476;-82
2022/08/01 07:46:55;;;;;;;1999.90;999.90;;;15.50;99.90;;;;;;4990778;28;20472;-83
2022/08/01 07:49:23;;;;;;;1999.90;999.90;;;15.50;99.90;;;;;;4990769;28;20921;-83
2022/08/01 07:51:50;;;;;;;1999.90;999.90;;;15.50;99.90;;;;;;4990766;28;20384;-83
2022/08/01 07:54:33;;;;;;;1999.90;999.90;;;15.50;99.90;;;;;;4991899;28;20884;-83
2022/08/01 07:57:03;;;;;;;1999.90;999.90;;;15.60;99.90;;;;;;4990697;28;20568;-82
2022/08/01 07:59:30;;;;;;;1999.90;999.90;;;15.60;99.90;;;;;;4990548;28;20396;-83
2022/08/01 08:01:58;;;;;;;1999.90;999.90;;;15.70;99.90;;;;;;4991814;28;20963;-82
2022/08/01 08:04:27;;;;;;;1999.90;999.90;;;15.70;99.90;;;;;;4990530;28;20399;-83
2022/08/01 08:06:54;;;;;;;1999.90;999.90;;;15.70;99.90;;;;;;4990493;28;20911;-83
2022/08/01 08:09:22;;;;;;;1999.90;999.90;;;15.80;99.90;;;;;;4990435;28;20492;-83
2022/08/01 08:11:50;;;;;;;1999.90;999.90;;;15.70;99.90;;;;;;4990427;28;20493;-83
2022/08/01 08:14:18;;;;;;;1999.90;999.90;;;15.70;99.90;;;;;;4990477;28;20755;-83
2022/08/01 08:16:46;;;;;;;1999.90;999.90;;;15.80;99.90;;;;;;4990495;28;20379;-83
2022/08/01 08:19:13;;;;;;;1999.90;999.90;;;15.80;99.90;;;;;;4990380;28;20393;-83
2022/08/01 08:21:41;;;;;;;1999.90;999.90;;;15.70;99.90;;;;;;4990386;28;20427;-83
2022/08/01 08:24:19;;;;;;;1999.90;999.90;;;15.70;99.90;;;;;;4990507;28;20397;-83
2022/08/01 08:26:59;;;;;;;1999.90;999.90;;;15.70;99.90;;;;;;4990362;28;20397;-83
2022/08/01 08:29:29;;;;;;;1999.90;999.90;;;15.70;99.90;;;;;;4990383;28;20420;-82
2022/08/01 08:31:57;;;;;;;1999.90;999.90;;;15.70;99.90;;;;;;4990301;28;20429;-83
2022/08/01 08:34:26;;;;;;;1999.90;999.90;;;15.80;99.90;;;;;;4990496;28;20447;-84
2022/08/01 08:36:56;;;;;;;1999.90;999.90;;;15.80;99.90;;;;;;4991465;28;20385;-83
2022/08/01 08:39:25;;;;;;;1999.90;999.90;;;15.80;99.90;;;;;;4993994;28;20393;-83
2022/08/01 08:41:53;;;;;;;1999.90;999.90;;;15.90;99.90;;;;;;4994297;28;20428;-83
2022/08/01 08:44:21;;;;;;;1999.90;999.90;;;15.80;99.90;;;;;;4994007;28;20404;-83
2022/08/01 08:46:53;;;;;;;1999.90;999.90;;;15.80;99.90;;;;;;4993592;28;20759;-82
2022/08/01 08:49:23;;;;;;;1999.90;999.90;;;15.80;99.90;;;;;;4993726;28;20471;-83
2022/08/01 08:51:53;;;;;;;1999.90;999.90;;;15.90;99.90;;;;;;4993842;28;20400;-83
2022/08/01 08:54:23;;;;;;;1999.90;999.90;;;15.90;99.90;;;;;;4995034;28;20408;-83
2022/08/01 08:56:59;;;;;;;1999.90;999.90;;;15.90;99.90;;;;;;4994905;28;20385;-83
2022/08/01 08:59:28;;;;;;;1999.90;999.90;;;16.00;99.90;;;;;;4993972;28;20385;-82
2022/08/01 09:01:57;;;;;;;1999.90;999.90;;;16.00;99.90;;;;;;4993548;28;20397;-83
2022/08/01 09:04:26;;;;;;;1999.90;999.90;;;16.00;99.90;;;;;;4994963;28;20400;-83
2022/08/01 09:06:54;;;;;;;1999.90;999.90;;;16.00;99.90;;;;;;4994776;28;20400;-83
2022/08/01 09:09:23;;;;;;;1999.90;999.90;;;16.00;99.90;;;;;;4993755;28;20819;-82
2022/08/01 09:11:50;;;;;;;1999.90;999.90;;;16.00;99.90;;;;;;4993502;28;20848;-83
2022/08/01 09:14:35;;;;;;;1999.90;999.90;;;16.00;99.90;;;;;;4993605;28;20393;-82
2022/08/01 09:17:10;;;;;;;1999.90;999.90;;;16.00;99.90;;;;;;4993295;28;20395;-83
2022/08/01 09:19:47;;;;;;;1999.90;999.90;;;16.00;99.90;;;;;;4994619;28;20897;-83
2022/08/01 09:22:18;;;;;;;1999.90;999.90;;;16.10;99.90;;;;;;4994828;28;20764;-83
2022/08/01 09:25:06;;;;;;;1999.90;999.90;;;16.10;99.90;;;;;;4993352;28;20492;-83
2022/08/01 09:27:37;;;;;;;1999.90;999.90;;;16.00;99.90;;;;;;4994428;28;20393;-83
2022/08/01 09:30:18;;;;;;;1999.90;999.90;;;16.10;99.90;;;;;;4993014;28;20983;-83
2022/08/01 09:32:57;;;;;;;1999.90;999.90;;;16.10;99.90;;;;;;4993207;28;20389;-83
2022/08/01 09:35:35;;;;;;;1999.90;999.90;;;16.10;99.90;;;;;;4993146;28;20444;-83
2022/08/01 09:38:16;;;;;;;1999.90;999.90;;;16.10;99.90;;;;;;4993161;28;20389;-83
2022/08/01 09:40:49;;;;;;;1999.90;999.90;;;16.20;99.90;;;;;;4994121;28;20403;-83
2022/08/01 09:43:17;;;;;;;1999.90;999.90;;;16.20;99.90;;;;;;4992891;28;20487;-83
2022/08/01 09:45:45;;;;;;;1999.90;999.90;;;16.20;99.90;;;;;;4992762;28;20400;-83
2022/08/01 09:48:20;;;;;;;1999.90;999.90;;;16.20;99.90;;;;;;4991817;28;20409;-83
2022/08/01 09:50:53;;;;;;;1999.90;999.90;;;16.30;99.90;;;;;;4992782;28;20492;-84
2022/08/01 09:53:21;;;;;;;1999.90;999.90;;;16.30;99.90;;;;;;4994221;28;20397;-83
2022/08/01 09:56:11;;;;;;;1999.90;999.90;;;16.30;99.90;;;;;;4992799;28;20455;-82
2022/08/01 09:58:51;;;;;;;1999.90;999.90;;;16.30;99.90;;;;;;4992591;28;20416;-82
2022/08/01 10:01:26;;;;;;;1999.90;999.90;;;16.30;99.90;;;;;;4992766;28;20404;-82
2022/08/01 10:04:07;;;;;;;1999.90;999.90;;;16.30;99.90;;;;;;4992645;28;20483;-83
2022/08/01 10:06:37;;;;;;;1999.90;999.90;;;16.30;99.90;;;;;;4992605;28;20911;-83
2022/08/01 10:09:05;;;;;;;1999.90;999.90;;;16.40;99.90;;;;;;4992378;28;20397;-83
2022/08/01 10:11:36;;;;;;;1999.90;999.90;;;16.40;99.90;;;;;;4992300;28;20480;-83
2022/08/01 10:14:06;;;;;;;1999.90;999.90;;;16.40;99.90;;;;;;4992401;28;20385;-84
2022/08/01 10:16:36;;;;;;;1999.90;999.90;;;16.50;99.90;;;;;;4992319;28;20393;-82
2022/08/01 10:19:07;;;;;;;1999.90;999.90;;;16.50;99.90;;;;;;4992111;28;20397;-82
2022/08/01 10:21:44;;;;;;;1999.90;999.90;;;16.50;99.90;;;;;;4992046;28;20827;-83
2022/08/01 10:24:28;;;;;;;1999.90;999.90;;;16.50;99.90;;;;;;4978073;28;20918;-83
2022/08/01 10:27:02;;;;;;;1999.90;999.90;;;16.60;99.90;;;;;;4993254;28;20405;-83
2022/08/01 10:30:03;;;;;;;1999.90;999.90;;;16.60;99.90;;;;;;4993233;28;20484;-83
2022/08/01 10:32:47;;;;;;;1999.90;999.90;;;16.60;99.90;;;;;;4991920;28;20411;-84
2022/08/01 10:35:18;;;;;;;1999.90;999.90;;;16.60;99.90;;;;;;4992164;28;20388;-84
2022/08/01 10:38:07;;;;;;;1999.90;999.90;;;16.60;99.90;;;;;;4992697;28;20480;-83
2022/08/01 10:40:41;;;;;;;1999.90;999.90;;;16.70;99.90;;;;;;4993027;28;20476;-83
2022/08/01 10:43:14;;;;;;;1999.90;999.90;;;16.70;99.90;;;;;;4993307;28;20451;-82
2022/08/01 10:45:50;;;;;;;1999.90;999.90;;;16.70;99.90;;;;;;4993168;28;20817;-83
2022/08/01 10:48:45;;;;;;;1999.90;999.90;;;16.70;99.90;;;;;;4991707;28;20423;-83
2022/08/01 10:51:15;;;;;;;1999.90;999.90;;;16.70;99.90;;;;;;4991760;28;20860;-82
2022/08/01 10:53:54;;;;;;;1999.90;999.90;;;16.80;99.90;;;;;;4991584;28;20389;-83
2022/08/01 10:56:23;;;;;;;1999.90;999.90;;;16.80;99.90;;;;;;4992117;28;20392;-84
2022/08/01 10:59:03;;;;;;;1999.90;999.90;;;16.80;99.90;;;;;;4992815;28;20870;-83
2022/08/01 11:01:38;;;;;;;1999.90;999.90;;;16.90;99.90;;;;;;4992995;28;20444;-84
2022/08/01 11:04:14;;;;;;;1999.90;999.90;;;16.90;99.90;;;;;;4992655;28;20439;-84
2022/08/01 11:07:04;;;;;;;1999.90;999.90;;;16.90;99.90;;;;;;4992609;28;20427;-83
2022/08/01 11:09:40;;;;;;;1999.90;999.90;;;17.00;99.90;;;;;;4992487;28;20420;-83
2022/08/01 11:12:11;;;;;;;1999.90;999.90;;;17.00;99.90;;;;;;4992351;28;20492;-83
2022/08/01 11:15:00;;;;;;;1999.90;999.90;;;17.00;99.90;;;;;;4992481;28;20397;-83
2022/08/01 11:17:34;;;;;;;1999.90;999.90;;;17.00;99.90;;;;;;4992322;28;20890;-83
2022/08/01 11:20:09;;;;;;;1999.90;999.90;;;17.00;99.90;;;;;;4991332;28;20393;-83
2022/08/01 11:23:01;;;;;;;1999.90;999.90;;;17.10;99.90;;;;;;4991068;28;20760;-83
2022/08/01 11:25:50;;;;;;;1999.90;999.90;;;17.10;99.90;;;;;;4975144;28;20404;-83
2022/08/01 11:28:37;;;;;;;1999.90;999.90;;;17.10;99.90;;;;;;4991236;28;20958;-84
2022/08/01 11:31:14;;;;;;;1999.90;999.90;;;17.10;99.90;;;;;;4990862;28;20937;-84
2022/08/01 11:33:44;;;;;;;1999.90;999.90;;;17.10;99.90;;;;;;4992167;28;20393;-84
2022/08/01 11:36:13;;;;;;;1999.90;999.90;;;17.10;99.90;;;;;;4992176;28;20393;-83
2022/08/01 11:38:57;;;;;;;1999.90;999.90;;;17.10;99.90;;;;;;4974984;28;20894;-83
2022/08/01 11:41:31;;;;;;;1999.90;999.90;;;17.20;99.90;;;;;;4990853;28;20405;-83
2022/08/01 11:44:09;;;;;;;1999.90;999.90;;;17.20;99.90;;;;;;4990806;28;20404;-83
2022/08/01 11:47:03;;;;;;;1999.90;999.90;;;17.20;99.90;;;;;;4990721;28;20790;-82
2022/08/01 11:49:45;;;;;;;1999.90;999.90;;;17.20;99.90;;;;;;4991507;28;20397;-83
2022/08/01 11:52:19;;;;;;;1999.90;999.90;;;17.20;99.90;;;;;;4975059;28;20470;-83
2022/08/01 11:55:06;;;;;;;1999.90;999.90;;;17.20;99.90;;;;;;4990807;28;20803;-83
2022/08/01 11:57:37;;;;;;;1999.90;999.90;;;17.20;99.90;;;;;;4977694;28;20400;-85
2022/08/01 12:00:12;;;;;;;1999.90;999.90;;;17.30;99.90;;;;;;4951904;28;20396;-83
2022/08/01 12:02:44;;;;;;;1999.90;999.90;;;17.30;99.90;;;;;;4951833;29;20392;-84
2022/08/01 12:05:16;;;;;;;1999.90;999.90;;;17.40;99.90;;;;;;4951845;28;20400;-84
2022/08/01 12:07:46;;;;;;;1999.90;999.90;;;17.40;99.90;;;;;;4967868;28;20470;-84
2022/08/01 12:10:19;;;;;;;1999.90;999.90;;;17.40;99.90;;;;;;4951932;29;20403;-84
2022/08/01 12:12:49;;;;;;;1999.90;999.90;;;17.40;99.90;;;;;;4955681;28;20405;-84
2022/08/01 12:15:19;;;;;;;1999.90;999.90;;;17.40;99.90;;;;;;4955906;29;20492;-84
2022/08/01 12:17:56;;;;;;;1999.90;999.90;;;17.40;99.90;;;;;;4939967;29;20407;-84
2022/08/01 12:20:35;;;;;;;1999.90;999.90;;;17.40;99.90;;;;;;4940203;29;20924;-84
2022/08/01 12:23:09;;;;;;;1999.90;999.90;;;17.40;99.90;;;;;;4955809;29;20420;-84
2022/08/01 12:25:40;;;;;;;1999.90;999.90;;;17.50;99.90;;;;;;4955647;29;20431;-84